Time;durP1;ratioP1;P1;durP2;ratioP2;P2;SDS_P1;SDS_P2;PMS_P1;PMS_P2;Temp;Humidity;BMP_temperature;BMP_pressure;BME280_temperature;BME280_humidity;BME280_pressure;Samples;Min_cycle;Max_cycle;Signal;HPM_P1;HPM_P2
2024/04/10 00:00:50;;;;;;;1.15;0.50;;;;;;;8.61;72.43;93219.31;2024750;70;20236;-73
2024/04/10 00:03:16;;;;;;;0.50;0.50;;;;;;;8.81;72.76;93217.28;2028028;70;20206;-71
2024/04/10 00:06:06;;;;;;;1.15;0.60;;;;;;;8.79;72.83;93216.38;2028271;70;20235;-71
2024/04/10 00:08:32;;;;;;;1.10;0.70;;;;;;;8.88;72.01;93218.47;2028276;70;20205;-75
2024/04/10 00:11:00;;;;;;;1.05;0.55;;;;;;;9.15;71.28;93223.97;2024703;70;20140;-71
2024/04/10 00:13:26;;;;;;;0.75;0.70;;;;;;;8.64;73.05;93215.31;2028128;70;20148;-72
2024/04/10 00:16:03;;;;;;;0.93;0.63;;;;;;;8.65;72.80;93227.28;2028008;70;20207;-72
2024/04/10 00:18:30;;;;;;;1.08;0.70;;;;;;;8.76;73.03;93240.03;2028146;70;20205;-72
2024/04/10 00:20:56;;;;;;;0.70;0.70;;;;;;;8.45;74.27;93259.41;2028024;70;20237;-72
2024/04/10 00:23:22;;;;;;;0.60;0.60;;;;;;;8.66;74.01;93262.44;2024619;70;20200;-71
2024/04/10 00:26:01;;;;;;;1.42;0.80;;;;;;;8.39;74.69;93254.06;2027952;70;20272;-73
2024/04/10 00:28:29;;;;;;;0.60;0.60;;;;;;;8.73;73.40;93258.78;2027845;70;20132;-72
2024/04/10 00:30:55;;;;;;;0.60;0.60;;;;;;;8.67;73.85;93263.94;2024578;70;20159;-72
2024/04/10 00:33:21;;;;;;;1.80;0.70;;;;;;;8.42;74.48;93247.28;2028248;70;20176;-71
2024/04/10 00:36:00;;;;;;;0.63;0.63;;;;;;;8.75;72.37;93247.72;2027899;70;20172;-73
2024/04/10 00:38:27;;;;;;;0.70;0.70;;;;;;;8.04;76.30;93242.94;2027926;70;20498;-72
2024/04/10 00:40:54;;;;;;;0.60;0.50;;;;;;;8.17;75.27;93241.09;2028047;70;20618;-73
2024/04/10 00:43:20;;;;;;;1.67;0.40;;;;;;;8.28;74.65;93238.47;2024430;70;20271;-72
2024/04/10 00:45:56;;;;;;;1.13;0.43;;;;;;;8.54;74.09;93241.88;2027807;70;20738;-73
2024/04/10 00:48:21;;;;;;;0.93;0.43;;;;;;;8.69;73.00;93247.22;2028174;70;20164;-74
2024/04/10 00:50:47;;;;;;;0.50;0.50;;;;;;;8.77;72.87;93238.69;2027958;70;20144;-72
2024/04/10 00:53:13;;;;;;;0.40;0.40;;;;;;;8.79;71.25;93228.34;2027932;70;20511;-72
2024/04/10 00:55:39;;;;;;;0.32;0.32;;;;;;;8.86;70.83;93252.75;2024779;70;20155;-73
2024/04/10 00:58:05;;;;;;;1.65;0.50;;;;;;;9.05;70.44;93240.81;2028017;70;20153;-72
2024/04/10 01:00:31;;;;;;;0.50;0.50;;;;;;;8.91;70.40;93232.06;2028100;70;20187;-72
2024/04/10 01:02:57;;;;;;;0.47;0.47;;;;;;;7.90;74.64;93220.13;2028122;70;20212;-72
2024/04/10 01:05:23;;;;;;;0.55;0.40;;;;;;;8.19;74.53;93239.16;2027889;70;20534;-71
2024/04/10 01:07:50;;;;;;;0.60;0.60;;;;;;;8.42;72.86;93238.13;2027944;70;20599;-71
2024/04/10 01:10:17;;;;;;;0.52;0.50;;;;;;;8.41;73.32;93228.97;2028030;70;20251;-75
2024/04/10 01:12:45;;;;;;;0.57;0.45;;;;;;;8.30;73.24;93238.63;2028002;70;20563;-72
2024/04/10 01:15:11;;;;;;;1.05;0.63;;;;;;;8.26;73.55;93229.16;2027633;70;20279;-75
2024/04/10 01:17:37;;;;;;;0.50;0.43;;;;;;;7.19;78.12;93241.72;2027854;70;20161;-74
2024/04/10 01:20:07;;;;;;;0.50;0.50;;;;;;;6.95;79.46;93246.81;2027600;70;20141;-73
2024/04/10 01:22:34;;;;;;;0.40;0.40;;;;;;;7.18;78.91;93254.22;2024287;70;20248;-72
2024/04/10 01:24:59;;;;;;;0.85;0.40;;;;;;;6.83;80.94;93249.34;2024387;70;20137;-73
2024/04/10 01:27:25;;;;;;;0.85;0.60;;;;;;;7.10;80.27;93262.69;2024196;70;20144;-72
2024/04/10 01:29:51;;;;;;;0.40;0.40;;;;;;;7.00;79.86;93261.88;2027760;70;20159;-73
2024/04/10 01:32:16;;;;;;;0.20;0.20;;;;;;;7.51;77.19;93258.34;2028183;70;20191;-74
2024/04/10 01:34:43;;;;;;;0.47;0.40;;;;;;;7.61;76.24;93278.06;2027968;70;20137;-72
2024/04/10 01:37:09;;;;;;;0.68;0.40;;;;;;;7.05;78.79;93278.41;2024348;70;20237;-74
2024/04/10 01:39:35;;;;;;;0.50;0.50;;;;;;;7.31;77.75;93268.66;2027767;70;20164;-75
2024/04/10 01:42:01;;;;;;;0.32;0.32;;;;;;;7.39;78.15;93265.78;2024653;70;20165;-74
2024/04/10 01:44:26;;;;;;;0.60;0.50;;;;;;;7.24;78.28;93274.31;2027965;70;20171;-73
2024/04/10 01:46:52;;;;;;;1.23;0.32;;;;;;;7.39;77.57;93272.13;2028037;70;20595;-73
2024/04/10 01:49:18;;;;;;;0.40;0.40;;;;;;;7.64;75.86;93271.28;2024140;70;20148;-73
2024/04/10 01:51:44;;;;;;;0.60;0.60;;;;;;;7.21;77.58;93267.84;2027931;70;20145;-72
2024/04/10 01:54:09;;;;;;;1.45;0.70;;;;;;;7.57;76.76;93289.66;2027812;70;20293;-71
2024/04/10 01:56:35;;;;;;;0.43;0.43;;;;;;;7.04;79.10;93281.81;2027855;70;20257;-72
2024/04/10 01:59:01;;;;;;;1.02;0.43;;;;;;;7.13;77.81;93272.75;2027683;70;20195;-73
2024/04/10 02:01:27;;;;;;;1.77;0.47;;;;;;;7.77;76.13;93290.56;2027981;70;20590;-71
2024/04/10 02:03:54;;;;;;;0.68;0.40;;;;;;;7.72;75.63;93282.41;2027960;70;20193;-71
2024/04/10 02:06:19;;;;;;;0.43;0.43;;;;;;;7.72;74.83;93277.53;2024457;70;20256;-72
2024/04/10 02:08:45;;;;;;;0.30;0.30;;;;;;;8.09;73.04;93286.06;2028070;70;20141;-73
2024/04/10 02:11:26;;;;;;;0.50;0.50;;;;;;;8.00;74.09;93284.66;2028085;70;20235;-75
2024/04/10 02:13:52;;;;;;;0.40;0.40;;;;;;;8.14;73.83;93296.25;2027949;70;20156;-74
2024/04/10 02:16:22;;;;;;;0.40;0.40;;;;;;;7.93;74.12;93293.94;2027897;70;20164;-76
2024/04/10 02:18:48;;;;;;;0.40;0.40;;;;;;;7.56;75.70;93288.19;2028101;70;20598;-73
2024/04/10 02:21:13;;;;;;;0.40;0.40;;;;;;;7.89;74.80;93285.94;2028098;70;20685;-76
2024/04/10 02:23:39;;;;;;;0.47;0.45;;;;;;;8.00;74.69;93281.88;2027759;70;20157;-73
2024/04/10 02:26:11;;;;;;;0.40;0.40;;;;;;;8.02;72.92;93289.72;2024476;70;20217;-74
2024/04/10 02:28:37;;;;;;;;;;;;;;;8.14;72.59;93294.19;2028037;70;20148;-72
2024/04/10 02:31:06;;;;;;;0.77;0.63;;;;;;;8.14;73.62;93288.59;2027718;70;20061;-73
2024/04/10 02:33:37;;;;;;;0.57;0.57;;;;;;;8.12;74.08;93280.03;2027947;70;20301;-72
2024/04/10 02:36:04;;;;;;;0.60;0.50;;;;;;;8.12;73.70;93270.88;2028074;70;20141;-71
2024/04/10 02:38:30;;;;;;;1.13;0.50;;;;;;;8.30;71.81;93275.09;2028124;70;20192;-71
2024/04/10 02:40:56;;;;;;;0.60;0.60;;;;;;;8.34;71.83;93267.00;2025069;70;20145;-72
2024/04/10 02:43:22;;;;;;;2.55;0.57;;;;;;;8.01;72.99;93272.13;2028440;70;20296;-72
2024/04/10 02:45:58;;;;;;;2.30;0.60;;;;;;;7.63;75.78;93267.00;2028714;70;20157;-73
2024/04/10 02:48:25;;;;;;;3.38;0.80;;;;;;;7.59;77.03;93261.81;2022297;70;20129;-73
2024/04/10 02:50:51;;;;;;;1.23;0.68;;;;;;;7.74;75.50;93271.34;2028515;70;20210;-74
2024/04/10 02:53:17;;;;;;;1.33;1.00;;;;;;;7.66;76.05;93265.13;2028459;70;20555;-73
2024/04/10 02:55:48;;;;;;;0.80;0.80;;;;;;;8.01;74.72;93280.53;2024967;70;20160;-73
2024/04/10 02:58:14;;;;;;;0.75;0.75;;;;;;;7.57;76.13;93274.91;2028327;70;20167;-76
2024/04/10 03:00:47;;;;;;;0.90;0.90;;;;;;;7.88;75.61;93256.41;2028540;70;20180;-77
2024/04/10 03:03:13;;;;;;;0.75;0.75;;;;;;;8.09;74.36;93266.41;2028710;70;20184;-75
2024/04/10 03:05:43;;;;;;;0.60;0.60;;;;;;;7.88;74.34;93264.84;2028628;70;20152;-75
2024/04/10 03:08:10;;;;;;;1.75;0.70;;;;;;;7.97;73.25;93257.03;2028396;70;20157;-76
2024/04/10 03:10:36;;;;;;;0.93;0.80;;;;;;;7.98;72.70;93253.69;2028675;70;20176;-73
2024/04/10 03:13:02;;;;;;;0.70;0.68;;;;;;;8.07;72.96;93271.88;2028584;70;20219;-73
2024/04/10 03:15:27;;;;;;;0.50;0.50;;;;;;;7.74;73.59;93271.34;2025003;70;20213;-76
2024/04/10 03:17:53;;;;;;;0.60;0.60;;;;;;;7.37;76.08;93285.22;2028551;70;20201;-72
2024/04/10 03:20:22;;;;;;;0.60;0.60;;;;;;;7.79;75.46;93285.13;2028517;70;20241;-73
2024/04/10 03:22:48;;;;;;;1.10;1.00;;;;;;;7.92;75.04;93281.22;2028555;70;20172;-73
2024/04/10 03:25:14;;;;;;;0.60;0.60;;;;;;;7.68;75.27;93282.81;2028391;70;20192;-74
2024/04/10 03:27:41;;;;;;;1.60;0.60;;;;;;;7.42;75.78;93281.41;2028410;70;20248;-73
2024/04/10 03:30:07;;;;;;;0.60;0.60;;;;;;;7.67;74.58;93286.22;2028252;70;20187;-75
2024/04/10 03:32:33;;;;;;;0.70;0.60;;;;;;;7.14;77.24;93294.56;2028516;70;20201;-74
2024/04/10 03:34:59;;;;;;;0.57;0.57;;;;;;;6.93;78.98;93301.88;2028458;70;20201;-72
2024/04/10 03:37:25;;;;;;;0.82;0.80;;;;;;;7.15;77.90;93306.53;2028599;70;20279;-73
2024/04/10 03:39:51;;;;;;;1.73;0.70;;;;;;;7.11;77.21;93298.53;2028363;70;20165;-72
2024/04/10 03:42:18;;;;;;;1.08;0.65;;;;;;;6.81;79.30;93305.13;2028390;70;20145;-74
2024/04/10 03:44:44;;;;;;;1.42;0.70;;;;;;;6.79;80.07;93301.44;2028350;70;20148;-73
2024/04/10 03:47:09;;;;;;;0.60;0.60;;;;;;;6.88;79.28;93298.75;2028496;70;20475;-73
2024/04/10 03:49:35;;;;;;;0.70;0.50;;;;;;;7.12;77.29;93288.81;2028288;70;20149;-73
2024/04/10 03:52:01;;;;;;;0.90;0.90;;;;;;;6.91;78.05;93296.84;2028369;70;20503;-76
2024/04/10 03:54:26;;;;;;;1.25;0.65;;;;;;;7.08;77.20;93298.94;2024903;70;20245;-75
2024/04/10 03:56:53;;;;;;;1.25;0.55;;;;;;;6.73;78.07;93292.53;2028303;70;20248;-77
2024/04/10 03:59:20;;;;;;;0.90;0.60;;;;;;;6.78;78.27;93283.91;2028321;70;20172;-75
2024/04/10 04:01:45;;;;;;;0.77;0.77;;;;;;;6.82;77.61;93287.03;2028418;70;20217;-71
2024/04/10 04:04:11;;;;;;;0.60;0.60;;;;;;;6.66;77.88;93288.47;2028429;70;20593;-73
2024/04/10 04:06:37;;;;;;;0.60;0.60;;;;;;;6.76;78.54;93297.72;2024981;70;20556;-73
2024/04/10 04:09:03;;;;;;;0.93;0.80;;;;;;;6.63;79.08;93312.00;2028555;70;20145;-72
2024/04/10 04:11:29;;;;;;;1.33;0.80;;;;;;;6.59;78.65;93326.38;2028283;70;20164;-72
2024/04/10 04:13:54;;;;;;;0.80;0.73;;;;;;;7.07;77.55;93331.06;2028150;70;20538;-71
2024/04/10 04:16:20;;;;;;;0.70;0.70;;;;;;;7.37;75.79;93327.22;2028491;70;20215;-72
2024/04/10 04:18:46;;;;;;;0.80;0.80;;;;;;;7.37;75.13;93324.44;2024921;70;20506;-72
2024/04/10 04:21:11;;;;;;;1.15;0.68;;;;;;;7.25;74.97;93324.19;2028414;70;20248;-73
2024/04/10 04:23:37;;;;;;;0.85;0.70;;;;;;;6.78;77.19;93322.31;2028498;70;20213;-72
2024/04/10 04:26:03;;;;;;;0.70;0.70;;;;;;;6.73;77.22;93326.09;2028184;70;20168;-74
2024/04/10 04:28:29;;;;;;;0.90;0.90;;;;;;;6.39;79.10;93332.31;2024509;70;20655;-76
2024/04/10 04:30:55;;;;;;;1.23;1.13;;;;;;;6.49;79.12;93342.31;2024063;71;20149;-72
2024/04/10 04:33:21;;;;;;;1.10;1.00;;;;;;;6.56;78.92;93340.78;2024224;71;20253;-75
2024/04/10 04:35:47;;;;;;;2.35;1.10;;;;;;;6.63;79.17;93343.50;2024901;70;20547;-75
2024/04/10 04:38:13;;;;;;;1.08;1.00;;;;;;;6.39;80.24;93365.88;2024918;70;20133;-76
2024/04/10 04:40:38;;;;;;;0.95;0.90;;;;;;;6.86;77.91;93368.53;2024991;70;20148;-75
2024/04/10 04:43:08;;;;;;;1.27;1.05;;;;;;;6.60;79.57;93369.09;2024564;70;20141;-75
2024/04/10 04:45:35;;;;;;;2.10;1.00;;;;;;;6.87;78.25;93364.44;2024885;70;20153;-72
2024/04/10 04:48:01;;;;;;;1.23;1.00;;;;;;;7.07;76.30;93368.19;2024704;70;20519;-72
2024/04/10 04:50:27;;;;;;;0.80;0.80;;;;;;;7.27;76.23;93366.34;2024675;71;20140;-75
2024/04/10 04:52:52;;;;;;;1.30;1.10;;;;;;;7.31;75.89;93368.75;2024892;70;20222;-73
2024/04/10 04:55:18;;;;;;;2.90;1.30;;;;;;;7.35;75.73;93355.81;2024716;71;20156;-70
2024/04/10 04:57:44;;;;;;;1.50;1.10;;;;;;;7.31;74.93;93358.28;2024893;70;20157;-72
2024/04/10 05:00:14;;;;;;;1.23;1.13;;;;;;;7.19;75.81;93373.31;2023845;71;20177;-72
2024/04/10 05:02:43;;;;;;;1.80;1.30;;;;;;;6.85;77.20;93374.72;2024921;70;20149;-73
2024/04/10 05:05:15;;;;;;;1.67;1.20;;;;;;;6.64;78.04;93375.03;2024746;70;20161;-73
2024/04/10 05:07:42;;;;;;;1.23;1.13;;;;;;;7.25;76.53;93385.06;2024581;70;20165;-74
2024/04/10 05:10:13;;;;;;;2.03;1.33;;;;;;;7.43;75.87;93394.97;2024481;70;20671;-73
2024/04/10 05:12:40;;;;;;;5.47;2.03;;;;;;;6.44;79.51;93410.41;2024449;70;20240;-73
2024/04/10 05:15:10;;;;;;;2.10;1.70;;;;;;;6.72;78.92;93400.16;2023905;71;20141;-73
2024/04/10 05:17:40;;;;;;;1.67;1.50;;;;;;;6.98;78.31;93396.09;2024372;70;20152;-74
2024/04/10 05:20:13;;;;;;;1.42;1.33;;;;;;;6.82;78.18;93395.44;2024539;70;20143;-72
2024/04/10 05:22:39;;;;;;;3.60;1.40;;;;;;;6.54;79.91;93396.53;2024494;70;20609;-73
2024/04/10 05:25:06;;;;;;;2.30;1.52;;;;;;;6.87;78.64;93402.84;2024457;71;20273;-71
2024/04/10 05:27:32;;;;;;;1.95;1.40;;;;;;;6.84;78.69;93401.97;2024639;70;20253;-73
2024/04/10 05:29:59;;;;;;;2.17;1.55;;;;;;;6.91;79.00;93399.66;2024501;70;20271;-75
2024/04/10 05:32:29;;;;;;;1.40;1.30;;;;;;;6.76;78.80;93389.31;2027975;70;20148;-72
2024/04/10 05:34:55;;;;;;;1.00;0.90;;;;;;;7.18;75.79;93402.66;2024462;70;20153;-71
2024/04/10 05:37:22;;;;;;;3.10;1.38;;;;;;;7.14;76.90;93414.25;2024516;70;20164;-71
2024/04/10 05:40:13;;;;;;;1.08;1.00;;;;;;;7.35;75.47;93405.50;2028054;70;20137;-72
2024/04/10 05:42:41;;;;;;;1.30;1.10;;;;;;;7.49;74.58;93409.47;2028165;70;20180;-71
2024/04/10 05:45:08;;;;;;;1.10;1.00;;;;;;;7.36;75.30;93402.13;2027905;70;20522;-72
2024/04/10 05:47:36;;;;;;;1.10;1.00;;;;;;;7.53;73.93;93409.09;2027852;70;20244;-75
2024/04/10 05:50:02;;;;;;;0.98;0.73;;;;;;;7.36;72.71;93418.91;2028093;70;20156;-74
2024/04/10 05:52:27;;;;;;;0.80;0.80;;;;;;;6.97;73.87;93428.19;2028440;70;20514;-72
2024/04/10 05:54:53;;;;;;;1.17;1.05;;;;;;;7.19;74.71;93432.13;2028394;70;20191;-72
2024/04/10 05:57:19;;;;;;;2.20;1.75;;;;;;;6.92;76.95;93431.94;2028320;70;20240;-72
2024/04/10 05:59:45;;;;;;;2.60;1.70;;;;;;;6.90;77.76;93431.78;2028272;70;20460;-72
2024/04/10 06:02:10;;;;;;;3.30;2.20;;;;;;;6.44;80.39;93424.38;2028203;70;20233;-73
2024/04/10 06:04:36;;;;;;;2.08;1.55;;;;;;;6.45;80.05;93430.72;2028302;70;20156;-74
2024/04/10 06:07:02;;;;;;;2.03;1.80;;;;;;;7.08;77.75;93450.88;2028260;70;20689;-75
2024/04/10 06:09:28;;;;;;;3.03;1.92;;;;;;;6.06;82.41;93467.22;2028165;70;20261;-75
2024/04/10 06:11:54;;;;;;;3.47;2.30;;;;;;;6.27;82.64;93463.41;2028040;70;20184;-75
2024/04/10 06:14:19;;;;;;;3.65;2.45;;;;;;;6.05;82.97;93471.31;2024978;70;20152;-74
2024/04/10 06:16:46;;;;;;;2.60;2.33;;;;;;;6.18;83.70;93477.97;2028425;70;20172;-71
2024/04/10 06:19:11;;;;;;;2.20;2.00;;;;;;;6.57;81.97;93477.28;2028491;70;20180;-71
2024/04/10 06:21:37;;;;;;;2.53;2.10;;;;;;;6.46;81.20;93483.31;2024864;70;20236;-71
2024/04/10 06:24:03;;;;;;;2.10;1.90;;;;;;;6.72;80.11;93484.13;2028301;70;20191;-71
2024/04/10 06:26:28;;;;;;;4.38;2.00;;;;;;;7.02;79.34;93497.97;2028403;70;20159;-71
2024/04/10 06:28:54;;;;;;;3.72;1.80;;;;;;;7.13;77.44;93479.97;2028360;70;20240;-71
2024/04/10 06:31:20;;;;;;;4.28;1.92;;;;;;;7.29;77.75;93480.63;2024866;70;20153;-71
2024/04/10 06:33:45;;;;;;;2.13;1.75;;;;;;;7.05;77.15;93488.41;2028270;70;20213;-70
2024/04/10 06:36:11;;;;;;;2.63;1.52;;;;;;;6.29;79.11;93489.53;2028438;70;20570;-72
2024/04/10 06:38:38;;;;;;;1.85;1.75;;;;;;;6.49;80.66;93487.03;2024836;70;20161;-72
2024/04/10 06:41:04;;;;;;;2.20;1.80;;;;;;;7.02;79.17;93492.38;2028576;70;20152;-73
2024/04/10 06:43:31;;;;;;;2.28;2.08;;;;;;;6.57;79.90;93480.09;2028477;70;20176;-73
2024/04/10 06:46:02;;;;;;;2.20;2.00;;;;;;;6.97;78.45;93498.19;2028429;70;20201;-72
2024/04/10 06:48:29;;;;;;;2.33;2.10;;;;;;;6.29;80.46;93495.13;2028621;70;20677;-73
2024/04/10 06:51:03;;;;;;;2.58;1.70;;;;;;;6.54;80.40;93494.47;2028416;70;20180;-72
2024/04/10 06:53:29;;;;;;;2.92;2.10;;;;;;;6.81;79.80;93495.44;2028611;70;20248;-73
2024/04/10 06:56:00;;;;;;;3.60;1.92;;;;;;;6.76;79.20;93490.06;2024973;70;20149;-73
2024/04/10 06:58:27;;;;;;;2.30;2.00;;;;;;;6.76;79.33;93490.06;2028819;70;20472;-74
2024/04/10 07:00:57;;;;;;;2.97;2.00;;;;;;;6.30;81.19;93473.47;2028769;70;20218;-75
2024/04/10 07:03:24;;;;;;;6.20;2.20;;;;;;;6.47;80.42;93468.00;2028790;70;20233;-75
2024/04/10 07:05:50;;;;;;;2.42;2.13;;;;;;;6.83;78.58;93453.66;2028924;70;20563;-75
2024/04/10 07:08:16;;;;;;;3.10;1.95;;;;;;;6.36;80.66;93460.03;2025464;70;20160;-75
2024/04/10 07:10:43;;;;;;;2.22;2.00;;;;;;;6.24;82.47;93473.69;2028511;70;20160;-73
2024/04/10 07:13:08;;;;;;;2.20;1.88;;;;;;;6.52;81.67;93469.13;2025175;70;20967;-71
2024/04/10 07:15:34;;;;;;;1.98;1.75;;;;;;;7.27;76.84;93467.16;2025178;70;20144;-75
2024/04/10 07:17:59;;;;;;;1.60;1.50;;;;;;;7.44;76.82;93469.28;2028808;70;20707;-73
2024/04/10 07:20:26;;;;;;;1.52;1.42;;;;;;;7.44;76.89;93471.34;2028966;70;20343;-72
2024/04/10 07:22:52;;;;;;;1.60;1.40;;;;;;;7.48;75.41;93466.84;2022488;70;20642;-71
2024/04/10 07:25:17;;;;;;;3.95;1.90;;;;;;;7.61;74.59;93463.75;2024978;70;20256;-74
2024/04/10 07:27:44;;;;;;;1.52;1.40;;;;;;;7.42;75.43;93476.78;2028711;70;20522;-72
2024/04/10 07:30:10;;;;;;;1.90;1.38;;;;;;;7.58;74.48;93481.69;2028114;70;20625;-72
2024/04/10 07:32:36;;;;;;;1.98;1.42;;;;;;;7.69;75.79;93488.88;2028642;70;20144;-73
2024/04/10 07:35:02;;;;;;;1.83;1.30;;;;;;;7.80;74.43;93494.03;2028429;70;20145;-75
2024/04/10 07:37:28;;;;;;;2.03;1.38;;;;;;;7.95;74.61;93507.16;2025156;70;20148;-72
2024/04/10 07:39:53;;;;;;;2.47;1.52;;;;;;;8.19;73.94;93525.25;2028546;70;20608;-72
2024/04/10 07:42:19;;;;;;;2.45;1.58;;;;;;;8.29;72.53;93516.94;2028788;70;20148;-71
2024/04/10 07:44:46;;;;;;;1.65;1.50;;;;;;;8.87;70.90;93534.28;2028460;70;20137;-75
2024/04/10 07:47:11;;;;;;;1.40;1.20;;;;;;;8.79;72.09;93537.16;2028679;70;20187;-75
2024/04/10 07:49:37;;;;;;;2.00;1.30;;;;;;;8.86;71.07;93539.16;2024957;70;20157;-73
2024/04/10 07:52:03;;;;;;;1.40;1.30;;;;;;;8.80;71.60;93543.56;2028377;70;20198;-71
2024/04/10 07:54:32;;;;;;;1.52;1.13;;;;;;;9.13;69.87;93553.25;2024859;70;20235;-72
2024/04/10 07:56:58;;;;;;;2.17;1.75;;;;;;;8.93;71.38;93554.41;2028507;70;20168;-72
2024/04/10 07:59:24;;;;;;;1.27;1.17;;;;;;;8.99;69.88;93554.94;2028410;70;20583;-71
2024/04/10 08:01:50;;;;;;;1.60;1.20;;;;;;;8.99;70.27;93557.72;2028658;70;20156;-73
2024/04/10 08:04:17;;;;;;;1.23;1.00;;;;;;;9.04;70.03;93565.16;2028563;70;20160;-71
2024/04/10 08:06:43;;;;;;;1.20;1.10;;;;;;;9.15;69.13;93569.50;2028628;70;20231;-74
2024/04/10 08:09:09;;;;;;;1.25;1.15;;;;;;;8.98;70.43;93575.91;2028478;70;20109;-73
2024/04/10 08:11:34;;;;;;;1.40;1.00;;;;;;;9.04;69.35;93570.03;2028625;70;20148;-73
2024/04/10 08:14:00;;;;;;;1.20;1.10;;;;;;;8.61;69.66;93569.38;2028341;70;20179;-73
2024/04/10 08:16:26;;;;;;;1.48;1.00;;;;;;;8.71;69.66;93563.88;2028656;70;20176;-73
2024/04/10 08:18:53;;;;;;;1.85;1.60;;;;;;;8.95;68.96;93562.28;2028479;70;20665;-73
2024/04/10 08:21:18;;;;;;;1.70;1.10;;;;;;;8.83;69.54;93562.03;2028552;70;20164;-73
2024/04/10 08:23:45;;;;;;;1.58;1.10;;;;;;;8.79;69.60;93572.94;2024994;70;20157;-73
2024/04/10 08:26:14;;;;;;;1.10;1.00;;;;;;;9.06;68.88;93587.03;2028571;70;20161;-74
2024/04/10 08:28:45;;;;;;;1.08;1.00;;;;;;;8.99;68.21;93601.94;2028377;70;20165;-73
2024/04/10 08:31:13;;;;;;;1.33;1.08;;;;;;;9.23;67.33;93592.63;2028165;70;20207;-73
2024/04/10 08:33:39;;;;;;;2.60;1.00;;;;;;;9.12;68.96;93598.78;2024835;70;20259;-74
2024/04/10 08:36:06;;;;;;;1.58;1.15;;;;;;;9.17;69.68;93592.16;2028515;70;20252;-73
2024/04/10 08:38:32;;;;;;;1.10;1.00;;;;;;;9.50;68.91;93600.34;2028515;70;20263;-72
2024/04/10 08:40:58;;;;;;;1.60;1.38;;;;;;;9.35;68.76;93607.66;2028557;70;20233;-72
2024/04/10 08:43:26;;;;;;;2.53;0.90;;;;;;;9.76;67.17;93612.91;2028856;70;20279;-71
2024/04/10 08:45:51;;;;;;;1.20;0.88;;;;;;;9.69;68.20;93603.28;2028607;70;20184;-70
2024/04/10 08:48:18;;;;;;;1.00;0.90;;;;;;;9.96;67.00;93614.50;2024968;70;20510;-71
2024/04/10 08:50:46;;;;;;;1.50;0.90;;;;;;;9.70;65.22;93607.56;2028290;70;20221;-72
2024/04/10 08:53:12;;;;;;;1.15;1.05;;;;;;;9.30;67.07;93607.91;2028640;70;20638;-72
2024/04/10 08:55:40;;;;;;;2.55;1.60;;;;;;;8.64;69.75;93607.53;2028560;70;20164;-72
2024/04/10 08:58:07;;;;;;;2.42;1.17;;;;;;;8.99;69.43;93597.06;2028098;70;20623;-73
2024/04/10 09:00:38;;;;;;;1.55;1.35;;;;;;;8.75;71.66;93601.44;2024858;70;20228;-73
2024/04/10 09:03:04;;;;;;;1.60;1.10;;;;;;;8.21;72.16;93601.19;2028321;70;20792;-72
2024/04/10 09:05:30;;;;;;;1.08;0.90;;;;;;;8.94;70.53;93583.25;2028136;70;20267;-71
2024/04/10 09:08:02;;;;;;;3.45;1.45;;;;;;;8.67;71.44;93589.53;2028311;70;20160;-71
2024/04/10 09:10:28;;;;;;;3.05;1.35;;;;;;;8.93;70.33;93590.19;2028163;70;20133;-73
2024/04/10 09:13:10;;;;;;;4.75;2.40;;;;;;;8.56;70.03;93592.81;2028023;70;20714;-73
2024/04/10 09:15:39;;;;;;;1.70;1.15;;;;;;;9.19;69.70;93586.69;2028015;70;20223;-72
2024/04/10 09:18:06;;;;;;;1.42;1.00;;;;;;;9.04;68.74;93570.03;2028071;70;20149;-73
2024/04/10 09:20:33;;;;;;;1.70;1.13;;;;;;;9.91;67.62;93582.50;2028019;70;20176;-71
2024/04/10 09:23:06;;;;;;;1.95;1.00;;;;;;;10.35;67.40;93578.06;2028030;70;20575;-72
2024/04/10 09:25:33;;;;;;;1.73;1.00;;;;;;;11.03;64.58;93597.88;2028212;70;20268;-74
2024/04/10 09:28:03;;;;;;;1.85;0.90;;;;;;;11.02;63.77;93585.13;2028026;70;20575;-75
2024/04/10 09:30:36;;;;;;;1.08;0.85;;;;;;;10.04;63.23;93578.56;2028039;70;20172;-71
2024/04/10 09:33:03;;;;;;;2.75;1.50;;;;;;;10.15;63.55;93580.81;2028030;70;20256;-73
2024/04/10 09:35:30;;;;;;;4.00;1.70;;;;;;;10.35;64.73;93578.81;2028119;70;20183;-73
2024/04/10 09:38:00;;;;;;;3.22;2.58;;;;;;;10.41;64.85;93584.19;2028136;70;20309;-74
2024/04/10 09:40:27;;;;;;;1.77;1.15;;;;;;;9.45;67.38;93581.69;2028085;70;20143;-73
2024/04/10 09:43:07;;;;;;;1.10;0.90;;;;;;;9.38;66.18;93581.19;2028105;70;20185;-72
2024/04/10 09:45:35;;;;;;;1.25;0.77;;;;;;;9.60;66.86;93587.09;2027991;70;20251;-71
2024/04/10 09:48:06;;;;;;;1.85;0.90;;;;;;;9.63;67.01;93586.66;2027677;70;20141;-71
2024/04/10 09:50:45;;;;;;;2.03;0.90;;;;;;;10.55;64.22;93587.31;2028088;70;20172;-73
2024/04/10 09:53:15;;;;;;;1.80;0.93;;;;;;;10.13;64.37;93591.91;2028055;70;20168;-73
2024/04/10 09:55:41;;;;;;;2.97;1.63;;;;;;;9.84;64.75;93588.25;2024540;70;20176;-72
2024/04/10 09:58:09;;;;;;;1.10;0.90;;;;;;;9.84;64.17;93582.63;2024261;70;20544;-72
2024/04/10 10:00:36;;;;;;;1.38;1.02;;;;;;;10.23;61.34;93585.59;2027950;70;20237;-71
2024/04/10 10:03:03;;;;;;;1.98;0.90;;;;;;;10.32;62.46;93582.81;2027927;70;20171;-72
2024/04/10 10:05:28;;;;;;;1.02;0.90;;;;;;;11.35;61.56;93577.69;2027937;70;20599;-72
2024/04/10 10:08:05;;;;;;;1.50;0.77;;;;;;;10.52;62.25;93585.69;2027893;70;20141;-71
2024/04/10 10:10:45;;;;;;;2.45;1.20;;;;;;;10.66;63.46;93592.38;2027969;70;20136;-72
2024/04/10 10:13:11;;;;;;;2.28;0.80;;;;;;;10.32;64.27;93590.53;2027858;70;20144;-71
2024/04/10 10:15:37;;;;;;;1.50;0.77;;;;;;;11.57;61.52;93603.19;2027921;70;20486;-72
2024/04/10 10:18:02;;;;;;;1.48;1.20;;;;;;;12.08;59.60;93601.88;2027891;70;20256;-70
2024/04/10 10:20:30;;;;;;;0.93;0.70;;;;;;;11.75;59.30;93603.75;2027923;70;20147;-73
2024/04/10 10:23:01;;;;;;;1.70;0.80;;;;;;;12.13;57.01;93598.00;2027912;70;20149;-72
2024/04/10 10:25:27;;;;;;;1.40;0.90;;;;;;;12.54;57.89;93600.03;2024460;70;20148;-72
2024/04/10 10:28:04;;;;;;;1.00;0.77;;;;;;;12.24;56.79;93604.34;2027979;70;20176;-74
2024/04/10 10:30:29;;;;;;;1.10;0.60;;;;;;;12.58;56.26;93605.97;2027791;70;20700;-73
2024/04/10 10:33:04;;;;;;;3.58;1.00;;;;;;;12.39;56.76;93598.34;2027948;70;20155;-71
2024/04/10 10:35:30;;;;;;;10.15;5.53;;;;;;;12.49;57.29;93595.47;2028002;70;20256;-73
2024/04/10 10:37:57;;;;;;;3.47;2.20;;;;;;;11.91;58.02;93594.38;2027951;70;20495;-71
2024/04/10 10:40:24;;;;;;;4.97;2.88;;;;;;;11.20;59.46;93589.28;2027795;70;20149;-75
2024/04/10 10:43:04;;;;;;;1.13;0.60;;;;;;;11.57;57.43;93595.47;2028106;70;20160;-74
2024/04/10 10:45:30;;;;;;;0.82;0.52;;;;;;;13.99;54.81;93587.56;2027565;70;20172;-74
2024/04/10 10:47:56;;;;;;;1.08;0.63;;;;;;;15.44;52.19;93581.97;2024386;70;20260;-74
2024/04/10 10:50:21;;;;;;;1.02;0.85;;;;;;;14.94;50.03;93586.22;2027909;70;20176;-72
2024/04/10 10:52:47;;;;;;;1.88;0.90;;;;;;;15.44;49.89;93579.13;2027869;70;20149;-75
2024/04/10 10:55:14;;;;;;;1.67;0.85;;;;;;;15.62;49.31;93573.75;2027825;70;20145;-73
2024/04/10 10:57:39;;;;;;;1.25;0.70;;;;;;;14.45;50.68;93583.28;2027747;70;20176;-72
2024/04/10 11:00:33;;;;;;;1.60;0.70;;;;;;;15.36;50.18;93590.78;2027965;70;20647;-72
2024/04/10 11:03:09;;;;;;;0.90;0.70;;;;;;;15.83;48.82;93589.84;2027988;70;20220;-71
2024/04/10 11:05:35;;;;;;;1.10;0.77;;;;;;;14.76;48.70;93577.38;2028312;70;20330;-71
2024/04/10 11:08:02;;;;;;;0.82;0.70;;;;;;;16.23;48.38;93592.06;2028274;70;20160;-72
2024/04/10 11:10:28;;;;;;;2.08;0.63;;;;;;;16.85;47.39;93581.81;2028123;70;20145;-72
2024/04/10 11:13:06;;;;;;;1.23;0.63;;;;;;;16.71;46.23;93583.91;2024680;70;20163;-71
2024/04/10 11:15:50;;;;;;;0.63;0.50;;;;;;;16.09;48.11;93571.41;2028210;70;20239;-72
2024/04/10 11:18:18;;;;;;;2.00;0.80;;;;;;;16.15;45.85;93574.56;2028329;70;20188;-74
2024/04/10 11:20:49;;;;;;;0.85;0.52;;;;;;;15.28;46.78;93581.06;2028112;70;20236;-72
2024/04/10 11:23:15;;;;;;;1.15;0.60;;;;;;;14.46;48.05;93574.16;2028148;70;20176;-72
2024/04/10 11:25:41;;;;;;;0.82;0.70;;;;;;;15.56;46.77;93573.41;2028215;70;20559;-75
2024/04/10 11:28:07;;;;;;;0.55;0.55;;;;;;;14.85;48.53;93576.47;2028152;70;20149;-72
2024/04/10 11:30:34;;;;;;;0.98;0.70;;;;;;;15.81;48.39;93567.78;2028303;70;20505;-73
2024/04/10 11:33:00;;;;;;;1.08;0.60;;;;;;;16.72;46.98;93574.78;2028094;70;20232;-74
2024/04/10 11:35:27;;;;;;;1.65;0.80;;;;;;;16.82;46.48;93571.72;2028225;70;20497;-72
2024/04/10 11:37:55;;;;;;;0.73;0.43;;;;;;;17.18;44.82;93575.69;2028199;70;20148;-75
2024/04/10 11:40:22;;;;;;;0.63;0.40;;;;;;;16.24;45.13;93572.91;2028466;70;20264;-71
2024/04/10 11:42:51;;;;;;;1.10;0.90;;;;;;;14.64;47.92;93562.47;2028351;70;20137;-73